sensor_id;sensor_type;location;lat;lon;timestamp;P1;durP1;ratioP1;P2;durP2;ratioP2
59336;SDS011;45115;52.002;4.686;2023-05-15T00:01:18;42.50;;;20.88;;
59336;SDS011;45115;52.002;4.686;2023-05-15T00:03:44;46.92;;;21.73;;
59336;SDS011;45115;52.002;4.686;2023-05-15T00:06:11;43.03;;;21.95;;
59336;SDS011;45115;52.002;4.686;2023-05-15T00:08:38;44.33;;;20.83;;
59336;SDS011;45115;52.002;4.686;2023-05-15T00:11:05;40.28;;;19.95;;
59336;SDS011;45115;52.002;4.686;2023-05-15T00:13:31;40.78;;;20.58;;
59336;SDS011;45115;52.002;4.686;2023-05-15T00:15:58;41.58;;;20.00;;
59336;SDS011;45115;52.002;4.686;2023-05-15T00:18:26;40.20;;;19.98;;
59336;SDS011;45115;52.002;4.686;2023-05-15T00:20:53;37.40;;;19.17;;
59336;SDS011;45115;52.002;4.686;2023-05-15T00:23:19;41.03;;;20.00;;
59336;SDS011;45115;52.002;4.686;2023-05-15T00:25:46;37.92;;;18.65;;
59336;SDS011;45115;52.002;4.686;2023-05-15T00:28:12;37.95;;;19.10;;
59336;SDS011;45115;52.002;4.686;2023-05-15T00:30:39;34.58;;;17.00;;
59336;SDS011;45115;52.002;4.686;2023-05-15T00:33:06;38.22;;;18.38;;
59336;SDS011;45115;52.002;4.686;2023-05-15T00:35:34;35.67;;;19.20;;
59336;SDS011;45115;52.002;4.686;2023-05-15T00:38:00;35.40;;;17.30;;
59336;SDS011;45115;52.002;4.686;2023-05-15T00:40:28;34.58;;;17.40;;
59336;SDS011;45115;52.002;4.686;2023-05-15T00:42:56;36.35;;;17.88;;
59336;SDS011;45115;52.002;4.686;2023-05-15T00:45:24;34.70;;;19.17;;
59336;SDS011;45115;52.002;4.686;2023-05-15T00:47:52;37.63;;;18.80;;
59336;SDS011;45115;52.002;4.686;2023-05-15T00:50:20;40.78;;;18.83;;
59336;SDS011;45115;52.002;4.686;2023-05-15T00:52:49;40.08;;;19.35;;
59336;SDS011;45115;52.002;4.686;2023-05-15T00:55:16;37.58;;;19.50;;
59336;SDS011;45115;52.002;4.686;2023-05-15T00:57:43;36.80;;;18.95;;
59336;SDS011;45115;52.002;4.686;2023-05-15T01:00:11;34.45;;;17.80;;
59336;SDS011;45115;52.002;4.686;2023-05-15T01:02:41;38.20;;;18.98;;
59336;SDS011;45115;52.002;4.686;2023-05-15T01:05:08;38.88;;;19.52;;
59336;SDS011;45115;52.002;4.686;2023-05-15T01:07:37;38.85;;;20.17;;
59336;SDS011;45115;52.002;4.686;2023-05-15T01:10:11;40.55;;;20.98;;
59336;SDS011;45115;52.002;4.686;2023-05-15T01:12:39;42.05;;;21.13;;
59336;SDS011;45115;52.002;4.686;2023-05-15T01:15:07;41.35;;;21.13;;
59336;SDS011;45115;52.002;4.686;2023-05-15T01:17:34;41.38;;;20.30;;
59336;SDS011;45115;52.002;4.686;2023-05-15T01:20:01;42.03;;;21.92;;
59336;SDS011;45115;52.002;4.686;2023-05-15T01:22:36;42.28;;;21.80;;
59336;SDS011;45115;52.002;4.686;2023-05-15T01:28:21;37.50;;;19.17;;
59336;SDS011;45115;52.002;4.686;2023-05-15T01:30:52;38.75;;;18.90;;
59336;SDS011;45115;52.002;4.686;2023-05-15T01:33:21;35.53;;;18.77;;
59336;SDS011;45115;52.002;4.686;2023-05-15T01:35:54;41.17;;;21.08;;
59336;SDS011;45115;52.002;4.686;2023-05-15T01:38:26;39.20;;;20.08;;
59336;SDS011;45115;52.002;4.686;2023-05-15T01:41:01;44.20;;;21.63;;
59336;SDS011;45115;52.002;4.686;2023-05-15T01:43:32;38.30;;;19.33;;
59336;SDS011;45115;52.002;4.686;2023-05-15T01:46:04;36.40;;;19.02;;
59336;SDS011;45115;52.002;4.686;2023-05-15T01:48:32;36.70;;;20.10;;
59336;SDS011;45115;52.002;4.686;2023-05-15T01:51:01;39.80;;;20.30;;
59336;SDS011;45115;52.002;4.686;2023-05-15T01:53:29;40.55;;;21.60;;
59336;SDS011;45115;52.002;4.686;2023-05-15T01:55:57;44.00;;;21.35;;
59336;SDS011;45115;52.002;4.686;2023-05-15T01:58:25;39.60;;;19.90;;
59336;SDS011;45115;52.002;4.686;2023-05-15T02:00:54;39.28;;;20.85;;
59336;SDS011;45115;52.002;4.686;2023-05-15T02:03:21;40.47;;;21.58;;
59336;SDS011;45115;52.002;4.686;2023-05-15T02:05:49;46.33;;;22.02;;
59336;SDS011;45115;52.002;4.686;2023-05-15T02:08:17;45.80;;;22.13;;
59336;SDS011;45115;52.002;4.686;2023-05-15T02:10:45;44.75;;;23.00;;
59336;SDS011;45115;52.002;4.686;2023-05-15T02:13:16;42.70;;;21.67;;
59336;SDS011;45115;52.002;4.686;2023-05-15T02:15:43;42.08;;;22.05;;
59336;SDS011;45115;52.002;4.686;2023-05-15T02:18:13;47.30;;;23.02;;
59336;SDS011;45115;52.002;4.686;2023-05-15T02:20:40;43.17;;;22.55;;
59336;SDS011;45115;52.002;4.686;2023-05-15T02:23:07;47.38;;;24.00;;
59336;SDS011;45115;52.002;4.686;2023-05-15T02:25:37;45.58;;;22.67;;
59336;SDS011;45115;52.002;4.686;2023-05-15T02:28:14;48.78;;;24.55;;
59336;SDS011;45115;52.002;4.686;2023-05-15T02:30:48;47.97;;;24.35;;
59336;SDS011;45115;52.002;4.686;2023-05-15T02:33:24;47.92;;;23.70;;
59336;SDS011;45115;52.002;4.686;2023-05-15T02:35:56;46.78;;;23.30;;
59336;SDS011;45115;52.002;4.686;2023-05-15T02:38:27;45.25;;;22.63;;
59336;SDS011;45115;52.002;4.686;2023-05-15T02:40:55;48.50;;;24.10;;
59336;SDS011;45115;52.002;4.686;2023-05-15T02:43:24;46.92;;;23.00;;
59336;SDS011;45115;52.002;4.686;2023-05-15T02:45:52;54.22;;;24.60;;
59336;SDS011;45115;52.002;4.686;2023-05-15T02:48:21;44.40;;;21.70;;
59336;SDS011;45115;52.002;4.686;2023-05-15T02:50:50;48.63;;;24.33;;
59336;SDS011;45115;52.002;4.686;2023-05-15T02:53:18;48.35;;;24.52;;
59336;SDS011;45115;52.002;4.686;2023-05-15T02:55:44;48.53;;;23.48;;
59336;SDS011;45115;52.002;4.686;2023-05-15T02:58:11;47.35;;;24.13;;
59336;SDS011;45115;52.002;4.686;2023-05-15T03:00:38;48.08;;;24.27;;
59336;SDS011;45115;52.002;4.686;2023-05-15T03:03:04;44.58;;;23.30;;
59336;SDS011;45115;52.002;4.686;2023-05-15T03:05:32;44.50;;;24.00;;
59336;SDS011;45115;52.002;4.686;2023-05-15T03:07:59;45.67;;;24.25;;
59336;SDS011;45115;52.002;4.686;2023-05-15T03:10:26;42.42;;;21.20;;
59336;SDS011;45115;52.002;4.686;2023-05-15T03:12:53;45.08;;;23.88;;
59336;SDS011;45115;52.002;4.686;2023-05-15T03:15:22;49.28;;;23.98;;
59336;SDS011;45115;52.002;4.686;2023-05-15T03:17:49;55.67;;;27.63;;
59336;SDS011;45115;52.002;4.686;2023-05-15T03:20:15;53.25;;;27.20;;
59336;SDS011;45115;52.002;4.686;2023-05-15T03:22:43;52.67;;;26.73;;
59336;SDS011;45115;52.002;4.686;2023-05-15T03:25:10;50.85;;;25.98;;
59336;SDS011;45115;52.002;4.686;2023-05-15T03:27:37;59.08;;;27.58;;
59336;SDS011;45115;52.002;4.686;2023-05-15T03:30:04;62.40;;;28.15;;
59336;SDS011;45115;52.002;4.686;2023-05-15T03:32:32;56.22;;;26.80;;
59336;SDS011;45115;52.002;4.686;2023-05-15T03:34:58;66.22;;;31.00;;
59336;SDS011;45115;52.002;4.686;2023-05-15T03:37:25;71.13;;;31.55;;
59336;SDS011;45115;52.002;4.686;2023-05-15T03:39:53;61.35;;;28.48;;
59336;SDS011;45115;52.002;4.686;2023-05-15T03:42:20;63.67;;;30.98;;
59336;SDS011;45115;52.002;4.686;2023-05-15T03:44:49;61.95;;;30.30;;
59336;SDS011;45115;52.002;4.686;2023-05-15T03:47:16;67.45;;;30.85;;
59336;SDS011;45115;52.002;4.686;2023-05-15T03:49:46;57.47;;;28.10;;
59336;SDS011;45115;52.002;4.686;2023-05-15T03:52:13;68.10;;;30.65;;
59336;SDS011;45115;52.002;4.686;2023-05-15T03:54:42;65.70;;;29.67;;
59336;SDS011;45115;52.002;4.686;2023-05-15T03:57:10;64.40;;;28.40;;
59336;SDS011;45115;52.002;4.686;2023-05-15T03:59:37;65.22;;;30.52;;
59336;SDS011;45115;52.002;4.686;2023-05-15T04:02:04;64.45;;;29.17;;
59336;SDS011;45115;52.002;4.686;2023-05-15T04:04:30;68.85;;;31.58;;
59336;SDS011;45115;52.002;4.686;2023-05-15T04:06:58;78.53;;;36.20;;
59336;SDS011;45115;52.002;4.686;2023-05-15T04:09:24;76.60;;;36.72;;
59336;SDS011;45115;52.002;4.686;2023-05-15T04:11:51;81.63;;;38.92;;
59336;SDS011;45115;52.002;4.686;2023-05-15T04:14:19;90.28;;;38.90;;
59336;SDS011;45115;52.002;4.686;2023-05-15T04:16:46;83.15;;;39.70;;
59336;SDS011;45115;52.002;4.686;2023-05-15T04:19:13;87.68;;;40.35;;
59336;SDS011;45115;52.002;4.686;2023-05-15T04:21:39;85.28;;;41.00;;
59336;SDS011;45115;52.002;4.686;2023-05-15T04:24:06;91.28;;;40.05;;
59336;SDS011;45115;52.002;4.686;2023-05-15T04:26:33;74.63;;;38.05;;
59336;SDS011;45115;52.002;4.686;2023-05-15T04:29:00;71.60;;;36.40;;
59336;SDS011;45115;52.002;4.686;2023-05-15T04:31:28;70.00;;;34.15;;
59336;SDS011;45115;52.002;4.686;2023-05-15T04:33:55;73.57;;;35.13;;
59336;SDS011;45115;52.002;4.686;2023-05-15T04:36:22;74.35;;;35.25;;
59336;SDS011;45115;52.002;4.686;2023-05-15T04:38:48;65.20;;;33.78;;
59336;SDS011;45115;52.002;4.686;2023-05-15T04:41:16;66.22;;;33.75;;
59336;SDS011;45115;52.002;4.686;2023-05-15T04:43:42;59.05;;;31.42;;
59336;SDS011;45115;52.002;4.686;2023-05-15T04:46:10;61.75;;;33.00;;
59336;SDS011;45115;52.002;4.686;2023-05-15T04:48:38;54.08;;;29.90;;
59336;SDS011;45115;52.002;4.686;2023-05-15T04:51:04;52.90;;;29.80;;
59336;SDS011;45115;52.002;4.686;2023-05-15T04:53:31;50.63;;;26.90;;
59336;SDS011;45115;52.002;4.686;2023-05-15T04:55:58;46.67;;;25.25;;
59336;SDS011;45115;52.002;4.686;2023-05-15T04:58:25;46.92;;;26.55;;
59336;SDS011;45115;52.002;4.686;2023-05-15T05:00:51;46.33;;;25.67;;
59336;SDS011;45115;52.002;4.686;2023-05-15T05:03:18;44.30;;;24.77;;
59336;SDS011;45115;52.002;4.686;2023-05-15T05:05:46;44.72;;;25.30;;
59336;SDS011;45115;52.002;4.686;2023-05-15T05:08:12;42.10;;;22.77;;
59336;SDS011;45115;52.002;4.686;2023-05-15T05:10:39;39.38;;;22.98;;
59336;SDS011;45115;52.002;4.686;2023-05-15T05:13:06;39.97;;;22.52;;
59336;SDS011;45115;52.002;4.686;2023-05-15T05:15:32;42.30;;;21.92;;
59336;SDS011;45115;52.002;4.686;2023-05-15T05:17:59;33.55;;;19.38;;
59336;SDS011;45115;52.002;4.686;2023-05-15T05:20:25;33.58;;;18.15;;
59336;SDS011;45115;52.002;4.686;2023-05-15T05:22:53;30.52;;;18.40;;
59336;SDS011;45115;52.002;4.686;2023-05-15T05:25:20;37.22;;;20.00;;
59336;SDS011;45115;52.002;4.686;2023-05-15T05:27:47;37.72;;;20.50;;
59336;SDS011;45115;52.002;4.686;2023-05-15T05:30:14;40.17;;;21.52;;
59336;SDS011;45115;52.002;4.686;2023-05-15T05:32:40;44.20;;;22.60;;
59336;SDS011;45115;52.002;4.686;2023-05-15T05:35:07;37.65;;;21.35;;
59336;SDS011;45115;52.002;4.686;2023-05-15T05:37:34;40.95;;;23.65;;
59336;SDS011;45115;52.002;4.686;2023-05-15T05:40:02;37.78;;;20.67;;
59336;SDS011;45115;52.002;4.686;2023-05-15T05:42:32;38.13;;;20.83;;
59336;SDS011;45115;52.002;4.686;2023-05-15T05:44:59;34.28;;;19.58;;
59336;SDS011;45115;52.002;4.686;2023-05-15T05:47:26;33.30;;;18.52;;
59336;SDS011;45115;52.002;4.686;2023-05-15T05:49:52;38.00;;;19.70;;
59336;SDS011;45115;52.002;4.686;2023-05-15T05:52:19;31.15;;;17.60;;
59336;SDS011;45115;52.002;4.686;2023-05-15T05:54:45;30.58;;;16.02;;
59336;SDS011;45115;52.002;4.686;2023-05-15T05:57:13;31.67;;;17.67;;
59336;SDS011;45115;52.002;4.686;2023-05-15T05:59:40;27.10;;;14.82;;
59336;SDS011;45115;52.002;4.686;2023-05-15T06:02:07;29.20;;;16.70;;
59336;SDS011;45115;52.002;4.686;2023-05-15T06:04:34;33.30;;;18.27;;
59336;SDS011;45115;52.002;4.686;2023-05-15T06:07:01;31.50;;;16.67;;
59336;SDS011;45115;52.002;4.686;2023-05-15T06:09:28;29.42;;;16.90;;
59336;SDS011;45115;52.002;4.686;2023-05-15T06:11:54;29.38;;;16.95;;
59336;SDS011;45115;52.002;4.686;2023-05-15T06:14:25;36.55;;;19.15;;
59336;SDS011;45115;52.002;4.686;2023-05-15T06:16:52;31.95;;;17.52;;
59336;SDS011;45115;52.002;4.686;2023-05-15T06:19:19;31.35;;;16.95;;
59336;SDS011;45115;52.002;4.686;2023-05-15T06:21:45;29.77;;;17.13;;
59336;SDS011;45115;52.002;4.686;2023-05-15T06:24:12;29.10;;;17.00;;
59336;SDS011;45115;52.002;4.686;2023-05-15T06:26:39;30.90;;;16.95;;
59336;SDS011;45115;52.002;4.686;2023-05-15T06:29:06;32.55;;;18.25;;
59336;SDS011;45115;52.002;4.686;2023-05-15T06:31:34;29.75;;;17.20;;
59336;SDS011;45115;52.002;4.686;2023-05-15T06:34:00;30.98;;;18.17;;
59336;SDS011;45115;52.002;4.686;2023-05-15T06:36:27;32.05;;;18.00;;
59336;SDS011;45115;52.002;4.686;2023-05-15T06:38:54;29.55;;;16.92;;
59336;SDS011;45115;52.002;4.686;2023-05-15T06:41:20;31.63;;;15.45;;
59336;SDS011;45115;52.002;4.686;2023-05-15T06:43:47;26.77;;;16.33;;
59336;SDS011;45115;52.002;4.686;2023-05-15T06:46:15;26.25;;;16.52;;
59336;SDS011;45115;52.002;4.686;2023-05-15T06:48:44;24.83;;;15.70;;
59336;SDS011;45115;52.002;4.686;2023-05-15T06:51:12;30.63;;;16.38;;
59336;SDS011;45115;52.002;4.686;2023-05-15T06:53:39;30.38;;;17.50;;
59336;SDS011;45115;52.002;4.686;2023-05-15T06:56:06;29.85;;;16.38;;
59336;SDS011;45115;52.002;4.686;2023-05-15T06:58:33;28.70;;;16.13;;
59336;SDS011;45115;52.002;4.686;2023-05-15T07:00:59;29.65;;;16.17;;
59336;SDS011;45115;52.002;4.686;2023-05-15T07:03:27;28.10;;;16.15;;
59336;SDS011;45115;52.002;4.686;2023-05-15T07:05:55;25.92;;;15.25;;
59336;SDS011;45115;52.002;4.686;2023-05-15T07:08:22;26.75;;;15.77;;
59336;SDS011;45115;52.002;4.686;2023-05-15T07:10:49;27.17;;;16.70;;
59336;SDS011;45115;52.002;4.686;2023-05-15T07:13:16;27.40;;;15.90;;
59336;SDS011;45115;52.002;4.686;2023-05-15T07:15:43;26.75;;;16.33;;
59336;SDS011;45115;52.002;4.686;2023-05-15T07:18:09;28.10;;;15.43;;
59336;SDS011;45115;52.002;4.686;2023-05-15T07:20:36;27.58;;;15.88;;
59336;SDS011;45115;52.002;4.686;2023-05-15T07:23:04;26.98;;;15.90;;
59336;SDS011;45115;52.002;4.686;2023-05-15T07:25:31;26.02;;;15.90;;
59336;SDS011;45115;52.002;4.686;2023-05-15T07:27:57;27.88;;;15.10;;
59336;SDS011;45115;52.002;4.686;2023-05-15T07:30:24;28.67;;;16.08;;
59336;SDS011;45115;52.002;4.686;2023-05-15T07:32:51;26.83;;;16.20;;
59336;SDS011;45115;52.002;4.686;2023-05-15T07:35:17;27.52;;;16.00;;
59336;SDS011;45115;52.002;4.686;2023-05-15T07:37:44;27.38;;;16.45;;
59336;SDS011;45115;52.002;4.686;2023-05-15T07:40:12;25.40;;;15.15;;
59336;SDS011;45115;52.002;4.686;2023-05-15T07:42:41;24.83;;;15.93;;
59336;SDS011;45115;52.002;4.686;2023-05-15T07:45:08;30.30;;;17.70;;
59336;SDS011;45115;52.002;4.686;2023-05-15T07:47:35;26.65;;;16.38;;
59336;SDS011;45115;52.002;4.686;2023-05-15T07:50:02;26.10;;;15.63;;
59336;SDS011;45115;52.002;4.686;2023-05-15T07:52:29;29.92;;;16.42;;
59336;SDS011;45115;52.002;4.686;2023-05-15T07:54:55;30.20;;;16.60;;
59336;SDS011;45115;52.002;4.686;2023-05-15T07:57:24;27.42;;;16.20;;
59336;SDS011;45115;52.002;4.686;2023-05-15T07:59:50;28.40;;;16.67;;
59336;SDS011;45115;52.002;4.686;2023-05-15T08:02:17;27.17;;;16.40;;
59336;SDS011;45115;52.002;4.686;2023-05-15T08:04:44;28.40;;;15.88;;
59336;SDS011;45115;52.002;4.686;2023-05-15T08:07:11;26.40;;;16.35;;
59336;SDS011;45115;52.002;4.686;2023-05-15T08:09:38;26.33;;;15.63;;
59336;SDS011;45115;52.002;4.686;2023-05-15T08:12:15;25.83;;;15.55;;
59336;SDS011;45115;52.002;4.686;2023-05-15T08:14:48;27.63;;;16.65;;
59336;SDS011;45115;52.002;4.686;2023-05-15T08:17:15;28.50;;;17.27;;
59336;SDS011;45115;52.002;4.686;2023-05-15T08:19:42;26.90;;;15.95;;
59336;SDS011;45115;52.002;4.686;2023-05-15T08:22:09;28.55;;;16.38;;
59336;SDS011;45115;52.002;4.686;2023-05-15T08:24:35;30.23;;;16.67;;
59336;SDS011;45115;52.002;4.686;2023-05-15T08:27:03;30.60;;;17.33;;
59336;SDS011;45115;52.002;4.686;2023-05-15T08:29:30;33.30;;;18.58;;
59336;SDS011;45115;52.002;4.686;2023-05-15T08:31:58;31.75;;;18.33;;
59336;SDS011;45115;52.002;4.686;2023-05-15T08:34:25;34.33;;;20.35;;
59336;SDS011;45115;52.002;4.686;2023-05-15T08:36:52;35.58;;;19.23;;
59336;SDS011;45115;52.002;4.686;2023-05-15T08:39:18;33.83;;;20.08;;
59336;SDS011;45115;52.002;4.686;2023-05-15T08:41:46;33.55;;;18.83;;
59336;SDS011;45115;52.002;4.686;2023-05-15T08:44:16;34.85;;;18.50;;
59336;SDS011;45115;52.002;4.686;2023-05-15T08:46:43;35.88;;;19.40;;
59336;SDS011;45115;52.002;4.686;2023-05-15T08:49:13;37.35;;;19.67;;
59336;SDS011;45115;52.002;4.686;2023-05-15T08:51:45;38.25;;;20.50;;
59336;SDS011;45115;52.002;4.686;2023-05-15T08:54:12;38.15;;;20.42;;
59336;SDS011;45115;52.002;4.686;2023-05-15T08:56:40;37.03;;;20.27;;
59336;SDS011;45115;52.002;4.686;2023-05-15T08:59:07;39.53;;;21.48;;
59336;SDS011;45115;52.002;4.686;2023-05-15T09:01:34;40.80;;;21.70;;
59336;SDS011;45115;52.002;4.686;2023-05-15T09:04:01;40.72;;;22.08;;
59336;SDS011;45115;52.002;4.686;2023-05-15T09:06:29;42.00;;;23.60;;
59336;SDS011;45115;52.002;4.686;2023-05-15T09:08:58;42.92;;;24.10;;
59336;SDS011;45115;52.002;4.686;2023-05-15T09:11:28;40.42;;;22.55;;
59336;SDS011;45115;52.002;4.686;2023-05-15T09:13:56;41.63;;;23.58;;
59336;SDS011;45115;52.002;4.686;2023-05-15T09:16:23;44.45;;;23.48;;
59336;SDS011;45115;52.002;4.686;2023-05-15T09:18:50;43.10;;;23.15;;
59336;SDS011;45115;52.002;4.686;2023-05-15T09:21:21;46.10;;;24.38;;
59336;SDS011;45115;52.002;4.686;2023-05-15T09:23:50;46.85;;;25.63;;
59336;SDS011;45115;52.002;4.686;2023-05-15T09:26:17;48.17;;;24.75;;
59336;SDS011;45115;52.002;4.686;2023-05-15T09:28:46;52.47;;;25.45;;
59336;SDS011;45115;52.002;4.686;2023-05-15T09:31:16;50.08;;;25.48;;
59336;SDS011;45115;52.002;4.686;2023-05-15T09:33:44;46.80;;;24.95;;
59336;SDS011;45115;52.002;4.686;2023-05-15T09:36:11;50.55;;;26.50;;
59336;SDS011;45115;52.002;4.686;2023-05-15T09:38:46;53.95;;;28.00;;
59336;SDS011;45115;52.002;4.686;2023-05-15T09:41:15;53.05;;;26.90;;
59336;SDS011;45115;52.002;4.686;2023-05-15T09:43:50;54.15;;;27.90;;
59336;SDS011;45115;52.002;4.686;2023-05-15T09:46:18;54.38;;;29.42;;
59336;SDS011;45115;52.002;4.686;2023-05-15T09:48:45;51.05;;;26.88;;
59336;SDS011;45115;52.002;4.686;2023-05-15T09:51:15;51.75;;;27.88;;
59336;SDS011;45115;52.002;4.686;2023-05-15T09:53:44;54.20;;;28.58;;
59336;SDS011;45115;52.002;4.686;2023-05-15T09:56:16;47.88;;;26.83;;
59336;SDS011;45115;52.002;4.686;2023-05-15T09:58:52;50.63;;;27.08;;
59336;SDS011;45115;52.002;4.686;2023-05-15T10:01:19;49.80;;;25.95;;
59336;SDS011;45115;52.002;4.686;2023-05-15T10:03:55;51.33;;;26.58;;
59336;SDS011;45115;52.002;4.686;2023-05-15T10:06:22;39.47;;;23.15;;
59336;SDS011;45115;52.002;4.686;2023-05-15T10:08:50;39.92;;;21.13;;
59336;SDS011;45115;52.002;4.686;2023-05-15T10:11:18;38.33;;;21.52;;
59336;SDS011;45115;52.002;4.686;2023-05-15T10:13:46;41.95;;;22.52;;
59336;SDS011;45115;52.002;4.686;2023-05-15T10:16:13;44.33;;;24.25;;
59336;SDS011;45115;52.002;4.686;2023-05-15T10:18:40;36.55;;;20.75;;
59336;SDS011;45115;52.002;4.686;2023-05-15T10:21:11;36.97;;;20.90;;
59336;SDS011;45115;52.002;4.686;2023-05-15T10:23:39;34.58;;;19.65;;
59336;SDS011;45115;52.002;4.686;2023-05-15T10:26:10;37.53;;;19.77;;
59336;SDS011;45115;52.002;4.686;2023-05-15T10:28:42;33.15;;;19.00;;
59336;SDS011;45115;52.002;4.686;2023-05-15T10:31:10;31.55;;;16.85;;
59336;SDS011;45115;52.002;4.686;2023-05-15T10:33:38;34.10;;;18.60;;
59336;SDS011;45115;52.002;4.686;2023-05-15T10:36:05;32.63;;;17.63;;
59336;SDS011;45115;52.002;4.686;2023-05-15T10:38:33;30.80;;;17.13;;
59336;SDS011;45115;52.002;4.686;2023-05-15T10:41:02;34.63;;;19.15;;
59336;SDS011;45115;52.002;4.686;2023-05-15T10:43:30;33.33;;;18.58;;
59336;SDS011;45115;52.002;4.686;2023-05-15T10:45:58;33.75;;;19.17;;
59336;SDS011;45115;52.002;4.686;2023-05-15T10:48:25;30.88;;;17.48;;
59336;SDS011;45115;52.002;4.686;2023-05-15T10:50:52;31.05;;;16.17;;
59336;SDS011;45115;52.002;4.686;2023-05-15T10:53:19;25.92;;;15.52;;
59336;SDS011;45115;52.002;4.686;2023-05-15T10:55:47;24.85;;;14.40;;
59336;SDS011;45115;52.002;4.686;2023-05-15T10:58:14;22.58;;;13.18;;
59336;SDS011;45115;52.002;4.686;2023-05-15T11:00:41;20.40;;;12.60;;
59336;SDS011;45115;52.002;4.686;2023-05-15T11:03:10;22.30;;;12.63;;
59336;SDS011;45115;52.002;4.686;2023-05-15T11:08:35;19.35;;;11.48;;
59336;SDS011;45115;52.002;4.686;2023-05-15T11:11:02;20.83;;;11.25;;
59336;SDS011;45115;52.002;4.686;2023-05-15T11:19:30;18.25;;;10.15;;
59336;SDS011;45115;52.002;4.686;2023-05-15T11:21:59;19.27;;;9.30;;
59336;SDS011;45115;52.002;4.686;2023-05-15T11:24:28;16.27;;;8.98;;
59336;SDS011;45115;52.002;4.686;2023-05-15T11:26:58;18.33;;;8.32;;
59336;SDS011;45115;52.002;4.686;2023-05-15T11:29:26;14.43;;;7.55;;
59336;SDS011;45115;52.002;4.686;2023-05-15T11:31:52;11.40;;;6.45;;
59336;SDS011;45115;52.002;4.686;2023-05-15T11:34:30;11.75;;;6.43;;
59336;SDS011;45115;52.002;4.686;2023-05-15T11:36:58;16.17;;;7.53;;
59336;SDS011;45115;52.002;4.686;2023-05-15T11:39:25;11.73;;;6.45;;
59336;SDS011;45115;52.002;4.686;2023-05-15T11:41:52;13.27;;;6.35;;
59336;SDS011;45115;52.002;4.686;2023-05-15T11:44:19;10.38;;;5.90;;
59336;SDS011;45115;52.002;4.686;2023-05-15T11:46:47;13.48;;;5.75;;
59336;SDS011;45115;52.002;4.686;2023-05-15T11:49:14;12.65;;;6.22;;
59336;SDS011;45115;52.002;4.686;2023-05-15T11:51:43;13.68;;;6.65;;
59336;SDS011;45115;52.002;4.686;2023-05-15T11:54:10;16.65;;;8.90;;
59336;SDS011;45115;52.002;4.686;2023-05-15T11:56:40;18.00;;;8.35;;
59336;SDS011;45115;52.002;4.686;2023-05-15T11:59:09;19.42;;;8.23;;
59336;SDS011;45115;52.002;4.686;2023-05-15T12:01:39;17.88;;;8.60;;
59336;SDS011;45115;52.002;4.686;2023-05-15T12:04:12;17.52;;;8.10;;
59336;SDS011;45115;52.002;4.686;2023-05-15T12:06:39;17.27;;;7.40;;
59336;SDS011;45115;52.002;4.686;2023-05-15T12:09:13;18.00;;;7.22;;
59336;SDS011;45115;52.002;4.686;2023-05-15T12:11:46;12.68;;;5.90;;
59336;SDS011;45115;52.002;4.686;2023-05-15T12:14:14;16.05;;;6.47;;
59336;SDS011;45115;52.002;4.686;2023-05-15T12:16:41;17.17;;;7.43;;
59336;SDS011;45115;52.002;4.686;2023-05-15T12:19:07;15.15;;;6.65;;
59336;SDS011;45115;52.002;4.686;2023-05-15T12:21:34;12.73;;;6.05;;
59336;SDS011;45115;52.002;4.686;2023-05-15T12:24:09;15.13;;;6.13;;
59336;SDS011;45115;52.002;4.686;2023-05-15T12:26:38;13.55;;;5.88;;
59336;SDS011;45115;52.002;4.686;2023-05-15T12:29:05;9.15;;;5.00;;
59336;SDS011;45115;52.002;4.686;2023-05-15T12:31:32;13.52;;;6.07;;
59336;SDS011;45115;52.002;4.686;2023-05-15T12:34:00;15.23;;;6.13;;
59336;SDS011;45115;52.002;4.686;2023-05-15T12:36:27;12.88;;;5.40;;
59336;SDS011;45115;52.002;4.686;2023-05-15T12:38:55;17.23;;;6.47;;
59336;SDS011;45115;52.002;4.686;2023-05-15T12:41:25;18.65;;;6.47;;
59336;SDS011;45115;52.002;4.686;2023-05-15T12:43:53;15.30;;;6.97;;
59336;SDS011;45115;52.002;4.686;2023-05-15T12:46:20;14.18;;;5.65;;
59336;SDS011;45115;52.002;4.686;2023-05-15T12:48:47;12.68;;;5.30;;
59336;SDS011;45115;52.002;4.686;2023-05-15T12:51:15;10.02;;;4.18;;
59336;SDS011;45115;52.002;4.686;2023-05-15T12:53:43;13.27;;;4.72;;
59336;SDS011;45115;52.002;4.686;2023-05-15T12:56:14;11.10;;;4.20;;
59336;SDS011;45115;52.002;4.686;2023-05-15T12:58:41;9.18;;;3.83;;
59336;SDS011;45115;52.002;4.686;2023-05-15T13:01:09;9.43;;;4.25;;
59336;SDS011;45115;52.002;4.686;2023-05-15T13:03:36;10.07;;;3.85;;
59336;SDS011;45115;52.002;4.686;2023-05-15T13:06:03;9.85;;;3.90;;
59336;SDS011;45115;52.002;4.686;2023-05-15T13:08:31;10.98;;;4.22;;
59336;SDS011;45115;52.002;4.686;2023-05-15T13:10:58;13.18;;;4.97;;
59336;SDS011;45115;52.002;4.686;2023-05-15T13:13:40;11.90;;;4.35;;
59336;SDS011;45115;52.002;4.686;2023-05-15T13:16:17;10.82;;;4.95;;
59336;SDS011;45115;52.002;4.686;2023-05-15T13:18:53;11.27;;;4.75;;
59336;SDS011;45115;52.002;4.686;2023-05-15T13:21:20;10.32;;;4.68;;
59336;SDS011;45115;52.002;4.686;2023-05-15T13:24:05;13.13;;;5.30;;
59336;SDS011;45115;52.002;4.686;2023-05-15T13:26:34;14.95;;;4.70;;
59336;SDS011;45115;52.002;4.686;2023-05-15T13:29:02;13.93;;;5.15;;
59336;SDS011;45115;52.002;4.686;2023-05-15T13:33:59;13.25;;;4.95;;
59336;SDS011;45115;52.002;4.686;2023-05-15T13:36:26;10.38;;;4.43;;
59336;SDS011;45115;52.002;4.686;2023-05-15T13:38:52;11.68;;;4.50;;
59336;SDS011;45115;52.002;4.686;2023-05-15T13:41:19;13.38;;;5.35;;
59336;SDS011;45115;52.002;4.686;2023-05-15T13:43:46;12.70;;;5.07;;
59336;SDS011;45115;52.002;4.686;2023-05-15T13:46:13;10.70;;;4.35;;
59336;SDS011;45115;52.002;4.686;2023-05-15T13:48:41;8.95;;;4.00;;
59336;SDS011;45115;52.002;4.686;2023-05-15T13:51:08;8.13;;;4.10;;
59336;SDS011;45115;52.002;4.686;2023-05-15T13:53:34;6.95;;;3.47;;
59336;SDS011;45115;52.002;4.686;2023-05-15T13:56:01;10.45;;;4.10;;
59336;SDS011;45115;52.002;4.686;2023-05-15T13:58:28;7.35;;;3.40;;
59336;SDS011;45115;52.002;4.686;2023-05-15T14:00:55;11.20;;;4.20;;
59336;SDS011;45115;52.002;4.686;2023-05-15T14:03:21;7.20;;;3.47;;
59336;SDS011;45115;52.002;4.686;2023-05-15T14:05:49;5.30;;;3.28;;
59336;SDS011;45115;52.002;4.686;2023-05-15T14:08:16;6.95;;;3.00;;
59336;SDS011;45115;52.002;4.686;2023-05-15T14:10:43;4.90;;;3.30;;
59336;SDS011;45115;52.002;4.686;2023-05-15T14:13:10;9.25;;;3.72;;
59336;SDS011;45115;52.002;4.686;2023-05-15T14:15:36;7.68;;;3.70;;
59336;SDS011;45115;52.002;4.686;2023-05-15T14:18:03;7.80;;;3.38;;
59336;SDS011;45115;52.002;4.686;2023-05-15T14:20:29;5.75;;;2.90;;
59336;SDS011;45115;52.002;4.686;2023-05-15T14:23:00;5.90;;;3.22;;
59336;SDS011;45115;52.002;4.686;2023-05-15T14:27:53;7.38;;;3.45;;
59336;SDS011;45115;52.002;4.686;2023-05-15T14:30:20;10.70;;;3.50;;
59336;SDS011;45115;52.002;4.686;2023-05-15T14:32:47;12.65;;;3.65;;
59336;SDS011;45115;52.002;4.686;2023-05-15T14:35:13;9.23;;;3.58;;
59336;SDS011;45115;52.002;4.686;2023-05-15T14:37:40;8.13;;;3.35;;
59336;SDS011;45115;52.002;4.686;2023-05-15T14:40:09;9.35;;;3.55;;
59336;SDS011;45115;52.002;4.686;2023-05-15T14:42:36;9.75;;;3.70;;
59336;SDS011;45115;52.002;4.686;2023-05-15T14:45:03;9.10;;;3.90;;
59336;SDS011;45115;52.002;4.686;2023-05-15T14:47:30;8.35;;;3.45;;